Time;durP1;ratioP1;P1;durP2;ratioP2;P2;SDS_P1;SDS_P2;PMS_P1;PMS_P2;Temp;Humidity;BMP_temperature;BMP_pressure;BME280_temperature;BME280_humidity;BME280_pressure;Samples;Min_cycle;Max_cycle;Signal;HPM_P1;HPM_P2
2023/04/24 00:01:19;;;;;;;4.85;1.50;;;12.00;99.90;;;;;;4152292;28;20036;-73
2023/04/24 00:03:20;;;;;;;3.55;1.50;;;12.00;99.90;;;;;;4156039;28;20041;-73
2023/04/24 00:05:21;;;;;;;4.45;1.27;;;12.00;99.90;;;;;;4157892;28;20045;-72
2023/04/24 00:07:22;;;;;;;2.33;1.42;;;11.90;99.90;;;;;;4148788;28;20045;-73
2023/04/24 00:09:24;;;;;;;2.53;1.60;;;11.90;99.90;;;;;;4158435;28;20038;-73
2023/04/24 00:11:24;;;;;;;4.50;1.88;;;11.90;99.90;;;;;;4155751;28;20048;-75
2023/04/24 00:13:25;;;;;;;3.50;1.48;;;11.90;99.90;;;;;;4156845;28;20117;-74
2023/04/24 00:15:25;;;;;;;2.90;1.80;;;11.90;99.90;;;;;;4156200;28;20061;-74
2023/04/24 00:17:26;;;;;;;3.40;1.67;;;11.80;99.90;;;;;;4160723;28;20038;-74
2023/04/24 00:19:27;;;;;;;3.78;2.10;;;11.80;99.90;;;;;;4162313;28;20041;-75
2023/04/24 00:21:27;;;;;;;2.30;1.77;;;11.80;99.90;;;;;;4157016;28;20512;-74
2023/04/24 00:23:28;;;;;;;3.05;1.63;;;11.80;99.90;;;;;;4161911;28;20092;-74
2023/04/24 00:25:29;;;;;;;2.33;1.70;;;11.80;99.90;;;;;;4160204;28;20068;-73
2023/04/24 00:27:29;;;;;;;2.92;1.60;;;11.70;99.90;;;;;;4160904;28;20030;-74
2023/04/24 00:29:30;;;;;;;3.13;1.83;;;11.80;99.90;;;;;;4162620;28;20128;-75
2023/04/24 00:31:31;;;;;;;2.47;1.60;;;11.70;99.90;;;;;;4159126;28;20121;-75
2023/04/24 00:33:31;;;;;;;3.53;1.80;;;11.70;99.90;;;;;;4160533;28;20863;-74
2023/04/24 00:35:32;;;;;;;3.45;1.90;;;11.70;99.90;;;;;;4161610;28;20152;-74
2023/04/24 00:37:32;;;;;;;4.22;2.00;;;11.70;99.90;;;;;;4159712;28;20092;-74
2023/04/24 00:39:33;;;;;;;4.45;1.85;;;11.70;99.90;;;;;;4161968;28;20087;-74
2023/04/24 00:41:34;;;;;;;4.38;2.10;;;11.70;99.90;;;;;;4160053;28;20496;-73
2023/04/24 00:43:35;;;;;;;3.88;2.03;;;11.70;99.90;;;;;;4159942;28;20045;-74
2023/04/24 00:45:36;;;;;;;3.67;2.50;;;11.70;99.90;;;;;;4161440;28;20041;-74
2023/04/24 00:47:36;;;;;;;2.88;2.20;;;11.60;99.90;;;;;;4158293;28;20032;-73
2023/04/24 00:49:37;;;;;;;4.38;2.70;;;11.60;99.90;;;;;;4161396;28;20044;-72
2023/04/24 00:51:37;;;;;;;4.80;2.40;;;11.50;99.90;;;;;;4159397;28;20096;-73
2023/04/24 00:53:38;;;;;;;6.47;2.80;;;11.50;99.90;;;;;;4159841;28;20029;-73
2023/04/24 00:55:39;;;;;;;6.28;2.95;;;11.50;99.90;;;;;;4159127;28;20412;-73
2023/04/24 00:57:39;;;;;;;7.57;2.75;;;11.50;99.90;;;;;;4161147;28;20034;-73
2023/04/24 00:59:41;;;;;;;6.50;3.10;;;11.50;99.90;;;;;;4161631;28;20026;-72
2023/04/24 01:01:42;;;;;;;4.43;2.70;;;11.50;99.90;;;;;;4159473;28;20029;-73
2023/04/24 01:03:44;;;;;;;7.15;3.10;;;11.40;99.90;;;;;;4157978;28;20228;-72
2023/04/24 01:05:44;;;;;;;4.13;2.97;;;11.40;99.90;;;;;;4161897;28;20038;-74
2023/04/24 01:07:48;;;;;;;7.65;3.40;;;11.40;99.90;;;;;;4161620;28;20552;-73
2023/04/24 01:09:50;;;;;;;4.65;3.15;;;11.40;99.90;;;;;;4160015;28;20084;-73
2023/04/24 01:11:51;;;;;;;4.05;3.10;;;11.40;99.90;;;;;;4157335;28;20034;-72
2023/04/24 01:13:52;;;;;;;5.60;3.33;;;11.40;99.90;;;;;;4160771;28;20048;-73
2023/04/24 01:15:53;;;;;;;6.60;3.70;;;11.40;99.90;;;;;;4161774;28;20038;-73
2023/04/24 01:17:53;;;;;;;4.35;3.20;;;11.40;99.90;;;;;;4161115;28;20048;-73
2023/04/24 01:19:56;;;;;;;5.18;3.30;;;11.20;99.90;;;;;;4160510;28;20052;-72
2023/04/24 01:21:58;;;;;;;8.07;4.05;;;11.30;99.90;;;;;;4145582;28;20460;-73
2023/04/24 01:23:59;;;;;;;9.52;4.50;;;11.30;99.90;;;;;;4160629;28;20068;-73
2023/04/24 01:26:00;;;;;;;6.78;4.20;;;11.30;99.90;;;;;;4156905;28;20492;-73
2023/04/24 01:28:01;;;;;;;11.45;4.90;;;11.20;99.90;;;;;;4162410;28;20068;-73
2023/04/24 01:30:02;;;;;;;7.95;4.18;;;11.20;99.90;;;;;;4160037;28;20041;-73
2023/04/24 01:32:04;;;;;;;5.13;3.58;;;11.30;99.90;;;;;;4159597;28;20029;-72
2023/04/24 01:34:05;;;;;;;8.20;4.00;;;11.30;99.90;;;;;;4155665;28;20073;-72
2023/04/24 01:36:07;;;;;;;6.50;3.75;;;11.20;99.90;;;;;;4160784;28;20053;-73
2023/04/24 01:38:08;;;;;;;6.50;3.85;;;11.30;99.90;;;;;;4147328;28;20144;-73
2023/04/24 01:40:09;;;;;;;5.60;3.88;;;11.30;99.90;;;;;;4155738;28;20112;-73
2023/04/24 01:42:09;;;;;;;5.88;4.13;;;11.20;99.90;;;;;;4159356;28;20037;-73
2023/04/24 01:44:10;;;;;;;6.47;4.53;;;11.20;99.90;;;;;;4159602;28;20384;-73
2023/04/24 01:46:11;;;;;;;7.28;4.30;;;11.20;99.90;;;;;;4160984;28;20042;-73
2023/04/24 01:48:12;;;;;;;6.45;3.75;;;11.20;99.90;;;;;;4159121;28;20464;-73
2023/04/24 01:50:13;;;;;;;9.13;4.27;;;11.20;99.90;;;;;;4158369;28;20029;-73
2023/04/24 01:52:14;;;;;;;5.63;4.03;;;11.20;99.90;;;;;;4161262;28;20036;-73
2023/04/24 01:54:14;;;;;;;8.20;4.10;;;11.20;99.90;;;;;;4159396;28;20049;-73
2023/04/24 01:56:15;;;;;;;7.28;4.30;;;11.20;99.90;;;;;;4159633;28;20048;-70
2023/04/24 01:58:16;;;;;;;7.38;4.30;;;11.20;99.90;;;;;;4161703;28;20402;-73
2023/04/24 02:00:16;;;;;;;6.32;3.72;;;11.20;99.90;;;;;;4159936;28;20087;-71
2023/04/24 02:02:17;;;;;;;8.48;4.60;;;11.20;99.90;;;;;;4159375;28;20036;-72
2023/04/24 02:04:17;;;;;;;6.35;4.40;;;11.20;99.90;;;;;;4157684;28;20381;-72
2023/04/24 02:06:18;;;;;;;5.93;4.32;;;11.20;99.90;;;;;;4159555;28;20499;-73
2023/04/24 02:08:19;;;;;;;12.65;5.78;;;11.20;99.90;;;;;;4161554;28;20030;-73
2023/04/24 02:10:19;;;;;;;8.18;5.15;;;11.10;99.90;;;;;;4159644;28;20030;-73
2023/04/24 02:12:20;;;;;;;7.20;4.68;;;11.20;99.90;;;;;;4156278;28;20026;-73
2023/04/24 02:14:20;;;;;;;13.50;5.80;;;11.10;99.90;;;;;;4160216;28;20037;-72
2023/04/24 02:16:21;;;;;;;7.22;5.03;;;11.10;99.90;;;;;;4143420;28;20451;-73
2023/04/24 02:18:22;;;;;;;10.07;5.45;;;11.10;99.90;;;;;;4160201;28;20029;-71
2023/04/24 02:20:23;;;;;;;10.57;6.03;;;11.00;99.90;;;;;;4158037;28;20037;-71
2023/04/24 02:22:23;;;;;;;11.23;6.28;;;11.10;99.90;;;;;;4148241;28;20046;-72
2023/04/24 02:24:24;;;;;;;12.45;7.10;;;11.10;99.90;;;;;;4159216;28;20080;-73
2023/04/24 02:26:25;;;;;;;8.45;6.60;;;11.10;99.90;;;;;;4157903;28;20029;-72
2023/04/24 02:28:25;;;;;;;14.45;7.22;;;11.10;99.90;;;;;;4161157;28;20491;-72
2023/04/24 02:30:26;;;;;;;10.70;6.15;;;11.10;99.90;;;;;;4160123;28;20120;-72
2023/04/24 02:32:27;;;;;;;13.30;6.75;;;11.10;99.90;;;;;;4159787;28;20686;-72
2023/04/24 02:34:27;;;;;;;12.07;6.43;;;11.00;99.90;;;;;;4156762;28;20041;-72
2023/04/24 02:36:28;;;;;;;15.32;6.88;;;11.10;99.90;;;;;;4154978;28;20124;-73
2023/04/24 02:38:29;;;;;;;13.82;7.63;;;11.00;99.90;;;;;;4161225;28;20040;-72
2023/04/24 02:40:30;;;;;;;9.50;6.60;;;11.10;99.90;;;;;;4157319;28;20146;-72
2023/04/24 02:42:30;;;;;;;12.27;7.53;;;11.10;99.90;;;;;;4159869;28;20037;-72
2023/04/24 02:44:31;;;;;;;10.30;7.05;;;11.10;99.90;;;;;;4147323;28;20048;-73
2023/04/24 02:46:31;;;;;;;13.60;6.90;;;11.10;99.90;;;;;;4156764;28;20041;-72
2023/04/24 02:48:32;;;;;;;13.43;7.57;;;11.00;99.90;;;;;;4160664;28;20124;-72
2023/04/24 02:50:33;;;;;;;9.93;6.82;;;11.10;99.90;;;;;;4158579;28;20384;-73
2023/04/24 02:52:34;;;;;;;15.93;7.75;;;11.10;99.90;;;;;;4156804;28;20420;-73
2023/04/24 02:54:34;;;;;;;15.30;7.43;;;11.10;99.90;;;;;;4156963;28;20053;-72
2023/04/24 02:56:35;;;;;;;15.52;8.30;;;11.10;99.90;;;;;;4157678;28;20040;-72
2023/04/24 02:58:36;;;;;;;12.32;7.00;;;11.10;99.90;;;;;;4161271;28;20061;-72
2023/04/24 03:00:36;;;;;;;14.23;7.68;;;11.10;99.90;;;;;;4156828;28;20034;-72
2023/04/24 03:02:37;;;;;;;14.50;7.75;;;11.10;99.90;;;;;;4159041;28;20038;-73
2023/04/24 03:04:37;;;;;;;15.15;7.75;;;11.10;99.90;;;;;;4158100;28;20045;-72
2023/04/24 03:06:38;;;;;;;16.17;8.32;;;11.10;99.90;;;;;;4160132;28;20056;-72
2023/04/24 03:08:39;;;;;;;10.57;7.25;;;11.10;99.90;;;;;;4161325;28;20388;-73
2023/04/24 03:10:39;;;;;;;16.00;8.82;;;11.10;99.90;;;;;;4157934;28;20120;-72
2023/04/24 03:12:40;;;;;;;14.00;8.00;;;11.10;99.90;;;;;;4159153;28;20037;-72
2023/04/24 03:14:40;;;;;;;15.20;8.68;;;11.10;99.90;;;;;;4161190;28;20120;-72
2023/04/24 03:16:41;;;;;;;15.32;7.50;;;11.10;99.90;;;;;;4159066;28;20040;-72
2023/04/24 03:18:42;;;;;;;14.20;7.78;;;11.10;99.90;;;;;;4159568;28;20040;-72
2023/04/24 03:20:45;;;;;;;14.93;8.25;;;11.10;99.90;;;;;;4157684;28;20049;-72
2023/04/24 03:22:45;;;;;;;15.25;8.95;;;11.10;99.90;;;;;;4153828;28;20081;-72
2023/04/24 03:24:46;;;;;;;12.40;7.75;;;11.00;99.90;;;;;;4156140;28;20377;-72
2023/04/24 03:26:46;;;;;;;14.15;7.97;;;11.10;99.90;;;;;;4155287;28;20061;-72
2023/04/24 03:28:47;;;;;;;13.38;8.45;;;11.10;99.90;;;;;;4156845;28;20080;-72
2023/04/24 03:30:47;;;;;;;12.75;7.55;;;11.00;99.90;;;;;;4156693;28;20068;-69
2023/04/24 03:32:48;;;;;;;14.93;8.15;;;11.00;99.90;;;;;;4153871;28;20092;-71
2023/04/24 03:34:49;;;;;;;18.42;8.38;;;11.00;99.90;;;;;;4154365;28;20041;-72
2023/04/24 03:36:50;;;;;;;17.33;8.40;;;11.00;99.90;;;;;;4155752;28;20049;-72
2023/04/24 03:38:51;;;;;;;12.45;7.65;;;11.10;99.90;;;;;;4153117;28;20030;-72
2023/04/24 03:40:51;;;;;;;14.57;7.88;;;11.00;99.90;;;;;;4155542;28;20045;-72
2023/04/24 03:42:52;;;;;;;15.27;7.55;;;11.10;99.90;;;;;;4155749;28;20033;-70
2023/04/24 03:44:53;;;;;;;14.98;7.80;;;11.10;99.90;;;;;;4159340;28;20443;-72
2023/04/24 03:46:53;;;;;;;14.85;7.35;;;11.10;99.90;;;;;;4158712;28;20068;-71
2023/04/24 03:48:54;;;;;;;10.57;7.57;;;11.20;99.90;;;;;;4160065;28;20045;-73
2023/04/24 03:50:54;;;;;;;12.27;7.82;;;11.10;99.90;;;;;;4155569;28;20045;-72
2023/04/24 03:52:55;;;;;;;12.45;6.75;;;11.10;99.90;;;;;;4157454;28;20558;-72
2023/04/24 03:54:56;;;;;;;13.18;6.90;;;11.10;99.90;;;;;;4162065;28;20057;-72
2023/04/24 03:56:56;;;;;;;14.80;7.97;;;11.10;99.90;;;;;;4160666;28;20038;-72
2023/04/24 03:58:57;;;;;;;13.48;8.07;;;11.10;99.90;;;;;;4160025;28;20041;-71
2023/04/24 04:00:58;;;;;;;12.20;7.25;;;11.10;99.90;;;;;;4160022;28;20033;-72
2023/04/24 04:02:59;;;;;;;11.55;7.20;;;11.10;99.90;;;;;;4160146;28;20100;-72
2023/04/24 04:04:59;;;;;;;11.57;6.80;;;11.10;99.90;;;;;;4150090;28;20049;-72
2023/04/24 04:07:03;;;;;;;12.85;7.68;;;11.00;99.90;;;;;;4158168;28;20049;-72
2023/04/24 04:09:03;;;;;;;15.73;7.30;;;11.10;99.90;;;;;;4158085;28;20044;-72
2023/04/24 04:11:04;;;;;;;11.73;7.03;;;11.10;99.90;;;;;;4161410;28;20420;-72
2023/04/24 04:13:06;;;;;;;11.90;6.90;;;11.00;99.90;;;;;;4159212;28;20040;-72
2023/04/24 04:15:07;;;;;;;10.38;6.18;;;11.00;99.90;;;;;;4162469;28;20069;-73
2023/04/24 04:17:07;;;;;;;11.88;6.88;;;11.00;99.90;;;;;;4147370;28;20493;-72
2023/04/24 04:19:08;;;;;;;11.40;6.95;;;11.00;99.90;;;;;;4157141;28;20121;-71
2023/04/24 04:21:08;;;;;;;14.60;7.38;;;11.00;99.90;;;;;;4161575;28;20037;-72
2023/04/24 04:23:09;;;;;;;12.02;6.68;;;10.90;99.90;;;;;;4160086;28;20041;-72
2023/04/24 04:25:11;;;;;;;12.30;6.75;;;11.00;99.90;;;;;;4161591;28;20084;-73
2023/04/24 04:27:12;;;;;;;9.23;5.97;;;11.00;99.90;;;;;;4161881;28;20033;-72
2023/04/24 04:29:13;;;;;;;8.93;6.38;;;11.00;99.90;;;;;;4162767;28;20041;-72
2023/04/24 04:31:14;;;;;;;11.55;7.07;;;11.00;99.90;;;;;;4156661;28;20040;-72
2023/04/24 04:33:15;;;;;;;11.10;6.13;;;11.00;99.90;;;;;;4160183;28;20030;-72
2023/04/24 04:35:15;;;;;;;15.50;6.97;;;11.00;99.90;;;;;;4161411;28;20479;-73
2023/04/24 04:37:16;;;;;;;10.18;6.05;;;10.90;99.90;;;;;;4159746;28;20132;-72
2023/04/24 04:39:18;;;;;;;9.13;6.18;;;10.90;99.90;;;;;;4158149;28;20038;-73
2023/04/24 04:41:20;;;;;;;13.68;7.20;;;10.80;99.90;;;;;;4159225;28;20025;-71
2023/04/24 04:43:20;;;;;;;10.50;6.65;;;10.90;99.90;;;;;;4159703;28;20043;-72
2023/04/24 04:45:21;;;;;;;11.63;6.25;;;10.90;99.90;;;;;;4157340;28;20125;-71
2023/04/24 04:47:24;;;;;;;10.70;5.68;;;10.80;99.90;;;;;;4161004;28;20038;-72
2023/04/24 04:49:28;;;;;;;10.98;6.00;;;10.80;99.90;;;;;;4159379;28;20072;-71
2023/04/24 04:51:29;;;;;;;7.25;4.80;;;10.80;99.90;;;;;;4153385;28;20490;-72
2023/04/24 04:53:30;;;;;;;8.90;5.18;;;10.80;99.90;;;;;;4160599;28;20122;-71
2023/04/24 04:55:30;;;;;;;7.10;4.68;;;10.80;99.90;;;;;;4160173;28;20053;-72
2023/04/24 04:57:31;;;;;;;8.65;5.53;;;10.80;99.90;;;;;;4161370;28;20041;-71
2023/04/24 04:59:31;;;;;;;11.20;5.65;;;10.80;99.90;;;;;;4161191;28;20397;-71
2023/04/24 05:01:32;;;;;;;8.02;5.45;;;10.70;99.90;;;;;;4159437;28;20044;-71
2023/04/24 05:03:33;;;;;;;7.40;5.30;;;10.70;99.90;;;;;;4142567;28;20492;-71
2023/04/24 05:05:33;;;;;;;12.23;6.18;;;10.70;99.90;;;;;;4160007;28;20042;-72
2023/04/24 05:07:34;;;;;;;7.90;5.18;;;10.70;99.90;;;;;;4154546;28;20052;-70
2023/04/24 05:09:35;;;;;;;8.93;5.00;;;10.70;99.90;;;;;;4156435;28;20107;-71
2023/04/24 05:11:35;;;;;;;8.80;5.13;;;10.80;99.90;;;;;;4153135;28;20105;-71
2023/04/24 05:13:36;;;;;;;6.78;5.03;;;10.70;99.90;;;;;;4157633;28;20030;-71
2023/04/24 05:15:36;;;;;;;8.40;4.97;;;10.80;99.90;;;;;;4153100;28;20045;-71
2023/04/24 05:17:39;;;;;;;7.97;4.95;;;10.70;99.90;;;;;;4155277;28;20045;-71
2023/04/24 05:19:40;;;;;;;6.82;4.78;;;10.70;99.90;;;;;;4154107;28;20476;-71
2023/04/24 05:21:41;;;;;;;7.43;4.90;;;10.70;99.90;;;;;;4156960;28;20030;-71
2023/04/24 05:23:41;;;;;;;8.00;5.13;;;10.70;99.90;;;;;;4153417;28;20033;-72
2023/04/24 05:25:42;;;;;;;9.07;5.20;;;10.60;99.90;;;;;;4155384;28;20382;-77
2023/04/24 05:27:44;;;;;;;8.80;4.72;;;10.70;99.90;;;;;;4139291;28;20057;-76
2023/04/24 05:29:45;;;;;;;10.63;5.60;;;10.70;99.90;;;;;;4154554;28;20503;-74
2023/04/24 05:31:45;;;;;;;7.88;5.38;;;10.70;99.90;;;;;;4151104;28;20045;-71
2023/04/24 05:33:46;;;;;;;7.55;4.90;;;10.70;99.90;;;;;;4153347;28;20055;-70
2023/04/24 05:35:46;;;;;;;6.72;4.75;;;10.70;99.90;;;;;;4139189;28;20044;-70
2023/04/24 05:37:47;;;;;;;9.13;5.00;;;10.70;99.90;;;;;;4154602;28;20041;-69
2023/04/24 05:39:48;;;;;;;9.48;5.57;;;10.70;99.90;;;;;;4157193;28;20044;-70
2023/04/24 05:41:48;;;;;;;7.50;5.00;;;10.70;99.90;;;;;;4152628;28;20041;-70
2023/04/24 05:43:49;;;;;;;9.18;5.55;;;10.60;99.90;;;;;;4153207;28;20480;-71
2023/04/24 05:45:50;;;;;;;9.68;5.22;;;10.60;99.90;;;;;;4149160;28;20455;-70
2023/04/24 05:47:52;;;;;;;11.77;5.00;;;10.60;99.90;;;;;;4152823;28;20098;-71
2023/04/24 05:49:53;;;;;;;8.00;4.97;;;10.60;99.90;;;;;;4153155;28;20042;-70
2023/04/24 05:51:53;;;;;;;8.60;5.78;;;10.50;99.90;;;;;;4155391;28;20079;-71
2023/04/24 05:53:54;;;;;;;9.23;5.68;;;10.60;99.90;;;;;;4153155;28;20061;-71
2023/04/24 05:55:55;;;;;;;8.18;5.40;;;10.50;99.90;;;;;;4152713;28;20466;-73
2023/04/24 05:57:55;;;;;;;8.85;5.10;;;10.50;99.90;;;;;;4140218;28;20443;-71
2023/04/24 05:59:56;;;;;;;10.30;4.95;;;10.50;99.90;;;;;;4154903;28;20188;-74
2023/04/24 06:01:57;;;;;;;7.20;5.18;;;10.40;99.90;;;;;;4137792;28;20041;-71
2023/04/24 06:03:58;;;;;;;5.88;4.53;;;10.40;99.90;;;;;;4155894;28;20316;-72
2023/04/24 06:05:58;;;;;;;9.32;5.22;;;10.40;99.90;;;;;;4154946;28;20227;-72
2023/04/24 06:07:59;;;;;;;7.55;5.22;;;10.40;99.90;;;;;;4152540;28;20047;-72
2023/04/24 06:10:00;;;;;;;8.43;5.63;;;10.40;99.90;;;;;;4155546;28;20041;-72
2023/04/24 06:12:00;;;;;;;8.02;5.00;;;10.40;99.90;;;;;;4154849;28;21194;-72
2023/04/24 06:14:01;;;;;;;8.88;5.47;;;10.40;99.90;;;;;;4156687;28;20050;-74
2023/04/24 06:16:01;;;;;;;9.05;4.85;;;10.40;99.90;;;;;;4151854;28;20095;-72
2023/04/24 06:18:02;;;;;;;7.47;5.10;;;10.30;99.90;;;;;;4157710;28;20048;-73
2023/04/24 06:20:05;;;;;;;8.38;5.10;;;10.40;99.90;;;;;;4158680;28;20117;-72
2023/04/24 06:22:06;;;;;;;8.00;5.05;;;10.30;99.90;;;;;;4156316;28;20049;-74
2023/04/24 06:24:06;;;;;;;7.80;5.45;;;10.30;99.90;;;;;;4156192;28;20120;-73
2023/04/24 06:26:07;;;;;;;7.35;4.50;;;10.30;99.90;;;;;;4154870;28;20056;-74
2023/04/24 06:28:08;;;;;;;6.65;5.10;;;10.30;99.90;;;;;;4153484;28;20033;-75
2023/04/24 06:30:09;;;;;;;7.70;4.57;;;10.30;99.90;;;;;;4155444;28;20065;-74
2023/04/24 06:32:09;;;;;;;8.23;4.55;;;10.30;99.90;;;;;;4150018;28;20131;-73
2023/04/24 06:34:10;;;;;;;7.85;4.45;;;10.30;99.90;;;;;;4155735;28;20041;-74
2023/04/24 06:36:12;;;;;;;5.55;4.10;;;10.20;99.90;;;;;;4139862;28;20584;-75
2023/04/24 06:38:12;;;;;;;5.30;3.97;;;10.10;99.90;;;;;;4155119;28;20120;-74
2023/04/24 06:40:13;;;;;;;4.55;3.67;;;10.20;99.90;;;;;;4155978;28;20435;-74
2023/04/24 06:42:14;;;;;;;7.55;3.88;;;10.20;99.90;;;;;;4151325;28;20061;-72
2023/04/24 06:44:15;;;;;;;5.65;3.60;;;10.10;99.90;;;;;;4157215;28;20038;-73
2023/04/24 06:46:15;;;;;;;4.20;3.63;;;10.10;99.90;;;;;;4134445;28;20046;-73
2023/04/24 06:48:16;;;;;;;4.63;3.53;;;10.10;99.90;;;;;;4156956;28;20037;-72
2023/04/24 06:50:17;;;;;;;5.20;3.22;;;10.20;99.90;;;;;;4154813;28;20452;-71
2023/04/24 06:52:18;;;;;;;5.78;3.40;;;10.20;99.90;;;;;;4156034;28;20395;-72
2023/04/24 06:54:19;;;;;;;3.67;2.80;;;10.20;99.90;;;;;;4137274;28;20133;-71
2023/04/24 06:56:20;;;;;;;5.20;3.20;;;10.10;99.90;;;;;;4138619;28;20065;-73
2023/04/24 06:58:21;;;;;;;4.72;2.60;;;10.10;99.90;;;;;;4142339;28;20061;-72
2023/04/24 07:00:23;;;;;;;3.95;2.67;;;10.20;99.90;;;;;;4140411;28;20041;-71
2023/04/24 07:02:25;;;;;;;2.90;1.95;;;10.20;99.90;;;;;;4139785;28;20117;-72
2023/04/24 07:04:25;;;;;;;2.50;1.80;;;10.30;99.90;;;;;;4139139;28;20073;-72
2023/04/24 07:06:27;;;;;;;3.05;1.80;;;10.20;99.90;;;;;;4139875;28;20049;-72
2023/04/24 07:08:30;;;;;;;1.92;1.70;;;10.20;99.90;;;;;;4140643;28;20473;-73
2023/04/24 07:10:30;;;;;;;3.58;1.40;;;10.20;99.90;;;;;;4139164;28;20040;-74
2023/04/24 07:12:32;;;;;;;2.45;1.45;;;10.20;99.90;;;;;;4139322;28;20120;-73
2023/04/24 07:14:32;;;;;;;1.98;1.25;;;10.10;99.90;;;;;;4140869;28;20044;-75
2023/04/24 07:16:33;;;;;;;1.95;1.27;;;10.10;99.90;;;;;;4135582;28;20069;-74
2023/04/24 07:18:33;;;;;;;1.23;1.00;;;10.00;99.90;;;;;;4140695;28;20104;-74
2023/04/24 07:20:34;;;;;;;2.13;1.25;;;10.00;99.90;;;;;;4139260;28;20172;-74
2023/04/24 07:22:35;;;;;;;1.85;1.00;;;10.00;99.90;;;;;;4141723;28;20053;-72
2023/04/24 07:24:35;;;;;;;1.30;0.90;;;10.00;99.90;;;;;;4139596;28;20042;-74
2023/04/24 07:26:37;;;;;;;3.13;1.33;;;10.00;99.90;;;;;;4138214;28;20038;-75
2023/04/24 07:28:38;;;;;;;2.70;1.00;;;9.90;99.90;;;;;;4140779;28;20117;-74
2023/04/24 07:30:38;;;;;;;1.15;0.90;;;10.00;99.90;;;;;;4136952;28;20080;-75
2023/04/24 07:32:39;;;;;;;3.20;1.13;;;9.90;99.90;;;;;;4138705;28;20061;-75
2023/04/24 07:34:40;;;;;;;1.55;0.90;;;9.80;99.90;;;;;;4137599;28;20084;-75
2023/04/24 07:36:41;;;;;;;2.47;1.20;;;9.90;99.90;;;;;;4137689;28;20491;-75
2023/04/24 07:38:42;;;;;;;1.42;0.90;;;9.80;99.90;;;;;;4138508;28;20384;-75
2023/04/24 07:40:43;;;;;;;1.33;1.00;;;9.80;99.90;;;;;;4137548;28;20088;-75
2023/04/24 07:42:43;;;;;;;0.60;0.60;;;9.80;99.90;;;;;;4138645;28;20551;-75
2023/04/24 07:44:46;;;;;;;0.93;0.77;;;9.80;99.90;;;;;;4138610;28;20045;-74
2023/04/24 07:46:47;;;;;;;;;;;9.80;99.90;;;;;;4139414;28;20049;-74
2023/04/24 07:48:47;;;;;;;2.15;0.70;;;9.80;99.90;;;;;;4141861;28;19916;-73
2023/04/24 07:50:48;;;;;;;1.20;0.52;;;9.80;99.90;;;;;;4138889;28;20496;-74
2023/04/24 07:52:49;;;;;;;0.80;0.60;;;9.80;99.90;;;;;;4138313;28;20038;-74
2023/04/24 07:54:58;;;;;;;1.65;0.98;;;9.80;99.90;;;;;;4147032;28;20555;-75
2023/04/24 07:56:58;;;;;;;1.38;0.65;;;9.80;99.90;;;;;;4154804;28;20574;-74
2023/04/24 07:59:00;;;;;;;1.23;0.52;;;9.80;99.90;;;;;;4155263;28;20053;-73
2023/04/24 08:01:01;;;;;;;3.25;0.73;;;9.90;99.90;;;;;;4154429;28;20038;-74
2023/04/24 08:03:02;;;;;;;2.97;0.80;;;9.90;99.90;;;;;;4151320;28;20040;-74
2023/04/24 08:05:03;;;;;;;0.70;0.60;;;9.90;99.90;;;;;;4155329;28;20073;-74
2023/04/24 08:07:03;;;;;;;2.60;0.70;;;9.90;99.90;;;;;;4156155;28;21116;-75
2023/04/24 08:09:04;;;;;;;0.60;0.60;;;9.90;99.90;;;;;;4157324;28;20041;-76
2023/04/24 08:11:05;;;;;;;1.63;0.55;;;9.90;99.90;;;;;;4154602;28;20057;-75
2023/04/24 08:13:05;;;;;;;1.23;0.70;;;9.90;99.90;;;;;;4153561;28;20037;-76
2023/04/24 08:15:06;;;;;;;0.50;0.50;;;9.90;99.90;;;;;;4152454;28;20041;-75
2023/04/24 08:17:07;;;;;;;1.35;0.63;;;9.90;99.90;;;;;;4153540;28;20388;-75
2023/04/24 08:19:08;;;;;;;0.95;0.43;;;9.90;99.90;;;;;;4156417;28;20049;-75
2023/04/24 08:21:08;;;;;;;2.53;0.80;;;9.90;99.90;;;;;;4153650;28;20053;-74
2023/04/24 08:23:09;;;;;;;0.57;0.57;;;9.90;99.90;;;;;;4152081;28;20045;-74
2023/04/24 08:25:10;;;;;;;2.15;0.68;;;10.00;99.90;;;;;;4154144;28;20052;-75
2023/04/24 08:27:11;;;;;;;3.00;0.50;;;10.00;99.90;;;;;;4151448;28;22717;-76
2023/04/24 08:29:12;;;;;;;1.52;0.40;;;10.00;99.90;;;;;;4154167;28;20492;-76
2023/04/24 08:31:12;;;;;;;0.57;0.40;;;10.10;99.90;;;;;;4154061;28;20045;-76
2023/04/24 08:33:14;;;;;;;0.90;0.60;;;10.10;99.90;;;;;;4154085;28;20060;-76
2023/04/24 08:35:15;;;;;;;2.27;0.60;;;10.10;99.90;;;;;;4154708;28;20113;-75
2023/04/24 08:37:15;;;;;;;0.70;0.43;;;10.10;99.90;;;;;;4152837;28;20293;-76
2023/04/24 08:39:17;;;;;;;2.35;0.85;;;10.10;99.90;;;;;;4156217;28;20052;-77
2023/04/24 08:41:19;;;;;;;1.92;0.75;;;10.10;99.90;;;;;;4153499;28;20034;-75
2023/04/24 08:43:22;;;;;;;2.70;1.50;;;10.00;99.90;;;;;;4156727;28;20480;-75
2023/04/24 08:45:23;;;;;;;5.32;3.22;;;10.00;99.90;;;;;;4153949;28;20477;-75
2023/04/24 08:47:26;;;;;;;7.68;4.47;;;9.90;99.90;;;;;;4156400;28;20187;-75
2023/04/24 08:49:28;;;;;;;8.10;4.50;;;9.80;99.90;;;;;;4155435;28;20033;-74
2023/04/24 08:51:30;;;;;;;8.98;4.85;;;9.80;99.90;;;;;;4156113;28;20854;-76
2023/04/24 08:53:32;;;;;;;11.73;5.13;;;9.70;99.90;;;;;;4153997;28;20517;-78
2023/04/24 08:55:33;;;;;;;8.10;5.07;;;9.70;99.90;;;;;;4150424;28;20147;-76
2023/04/24 08:57:35;;;;;;;10.02;5.07;;;9.60;99.90;;;;;;4154846;28;20047;-75
2023/04/24 08:59:37;;;;;;;8.15;5.03;;;9.60;99.90;;;;;;4154722;28;20495;-73
2023/04/24 09:01:40;;;;;;;6.33;4.73;;;9.60;99.90;;;;;;4153181;28;20168;-74
2023/04/24 09:03:40;;;;;;;6.85;4.45;;;9.50;99.90;;;;;;4156041;28;20100;-75
2023/04/24 09:05:45;;;;;;;7.45;4.68;;;9.60;99.90;;;;;;4154677;28;20057;-75
2023/04/24 09:07:53;;;;;;;8.52;4.95;;;9.50;99.90;;;;;;4158285;28;20049;-76
2023/04/24 09:09:54;;;;;;;12.80;5.47;;;9.50;99.90;;;;;;4141298;28;20046;-76
2023/04/24 09:11:55;;;;;;;9.68;5.68;;;9.50;99.90;;;;;;4156258;28;20516;-77
2023/04/24 09:13:57;;;;;;;9.55;5.43;;;9.40;99.90;;;;;;4153490;28;20072;-74
2023/04/24 09:16:00;;;;;;;9.98;5.57;;;9.50;99.90;;;;;;4150890;28;20064;-75
2023/04/24 09:18:01;;;;;;;11.32;5.30;;;9.40;99.90;;;;;;4155954;28;20029;-76
2023/04/24 09:20:02;;;;;;;12.52;5.88;;;9.40;99.90;;;;;;4158733;28;20040;-76
2023/04/24 09:22:07;;;;;;;10.77;5.63;;;9.40;99.90;;;;;;4153844;28;20046;-76
2023/04/24 09:24:17;;;;;;;9.60;5.53;;;9.40;99.90;;;;;;4154688;28;20072;-76
2023/04/24 09:26:20;;;;;;;13.75;6.28;;;9.40;99.90;;;;;;4157296;28;20499;-77
2023/04/24 09:28:24;;;;;;;;;;;9.50;99.90;;;;;;4157632;28;20140;-77
2023/04/24 09:30:25;;;;;;;9.70;5.63;;;9.40;99.90;;;;;;4155265;28;20131;-75
2023/04/24 09:32:27;;;;;;;11.23;5.45;;;9.50;99.90;;;;;;4141411;28;20037;-76
2023/04/24 09:34:28;;;;;;;15.95;5.95;;;9.50;99.90;;;;;;4152508;28;20046;-76
2023/04/24 09:36:33;;;;;;;9.90;4.75;;;9.50;99.90;;;;;;4156859;28;20065;-76
2023/04/24 09:38:38;;;;;;;14.18;5.78;;;9.50;99.90;;;;;;4141342;28;20061;-78
2023/04/24 09:40:39;;;;;;;13.57;5.85;;;9.60;99.90;;;;;;4155897;28;20087;-75
2023/04/24 09:42:53;;;;;;;9.18;4.60;;;9.60;99.90;;;;;;4155992;28;20443;-76
2023/04/24 09:44:54;;;;;;;10.63;4.90;;;9.60;99.90;;;;;;4151202;28;20540;-75
2023/04/24 09:46:56;;;;;;;13.30;5.00;;;9.70;99.90;;;;;;4141057;28;20037;-77
2023/04/24 09:48:57;;;;;;;10.20;4.75;;;9.60;99.90;;;;;;4157737;28;20484;-73
2023/04/24 09:50:58;;;;;;;10.00;4.25;;;9.60;99.90;;;;;;4157451;28;20087;-74
2023/04/24 09:53:02;;;;;;;12.35;4.03;;;9.60;99.90;;;;;;4151077;28;20115;-75
2023/04/24 09:55:11;;;;;;;13.07;4.28;;;9.60;99.90;;;;;;4155635;28;20056;-75
2023/04/24 09:57:14;;;;;;;7.78;3.90;;;9.60;99.90;;;;;;4155948;28;20068;-75
2023/04/24 09:59:16;;;;;;;12.98;3.72;;;9.60;99.90;;;;;;4155574;28;20041;-73
2023/04/24 10:01:32;;;;;;;18.75;4.68;;;9.70;99.90;;;;;;4152793;28;20484;-73
2023/04/24 10:03:33;;;;;;;10.43;3.95;;;9.70;99.90;;;;;;4154865;28;20045;-74
2023/04/24 10:05:38;;;;;;;10.57;3.97;;;9.70;99.90;;;;;;4153646;28;20041;-74
2023/04/24 10:07:39;;;;;;;11.30;4.13;;;9.70;99.90;;;;;;4154979;28;20037;-73
2023/04/24 10:09:40;;;;;;;10.00;4.50;;;9.80;99.90;;;;;;4154442;28;20135;-74
2023/04/24 10:11:45;;;;;;;14.77;5.00;;;9.80;99.90;;;;;;4137477;28;20515;-72
2023/04/24 10:13:46;;;;;;;15.52;4.43;;;9.90;99.90;;;;;;4151346;28;20050;-74
2023/04/24 10:15:47;;;;;;;10.77;3.63;;;9.90;99.90;;;;;;4154924;28;20037;-74
2023/04/24 10:17:53;;;;;;;12.23;4.50;;;9.90;99.90;;;;;;4156612;28;20037;-75
2023/04/24 10:19:54;;;;;;;11.05;3.83;;;9.90;99.90;;;;;;4153856;28;20037;-71
2023/04/24 10:21:57;;;;;;;12.70;4.78;;;10.00;99.90;;;;;;4156288;28;20472;-73
2023/04/24 10:23:59;;;;;;;13.50;4.18;;;9.90;99.90;;;;;;4152167;28;20033;-73
2023/04/24 10:26:00;;;;;;;;;;;9.90;99.90;;;;;;4154215;28;20038;-72
2023/04/24 10:28:02;;;;;;;12.77;4.85;;;9.90;99.90;;;;;;4150957;28;19924;-73
2023/04/24 10:30:03;;;;;;;12.17;3.87;;;9.90;99.90;;;;;;4153884;28;20049;-74